createdAt,value
2022-08-19T00:02:01.152Z,9.75
2022-08-19T00:04:32.943Z,9.60
2022-08-19T00:07:01.756Z,8.10
2022-08-19T00:09:31.028Z,9.25
2022-08-19T00:12:00.585Z,8.95
2022-08-19T00:14:31.410Z,7.47
2022-08-19T00:17:00.068Z,10.07
2022-08-19T00:19:28.027Z,8.73
2022-08-19T00:21:57.475Z,8.98
2022-08-19T00:24:29.572Z,10.18
2022-08-19T00:27:25.157Z,7.93
2022-08-19T00:29:47.090Z,7.80
2022-08-19T00:32:21.435Z,9.02
2022-08-19T00:34:52.687Z,8.43
2022-08-19T00:37:23.835Z,8.43
2022-08-19T00:39:56.622Z,7.30
2022-08-19T00:42:29.293Z,7.90
2022-08-19T00:44:57.736Z,7.60
2022-08-19T00:47:25.877Z,7.03
2022-08-19T00:49:58.918Z,6.47
2022-08-19T00:52:31.220Z,7.90
2022-08-19T00:57:34.114Z,6.63
2022-08-19T01:00:04.136Z,8.27
2022-08-19T01:02:33.952Z,6.75
2022-08-19T01:05:08.753Z,8.30
2022-08-19T01:07:39.831Z,7.20
2022-08-19T01:10:11.196Z,7.82
2022-08-19T01:12:41.585Z,8.15
2022-08-19T01:15:13.168Z,7.13
2022-08-19T01:17:42.757Z,6.67
2022-08-19T01:20:13.394Z,7.47
2022-08-19T01:22:47.206Z,8.27
2022-08-19T01:25:17.137Z,7.30
2022-08-19T01:27:48.552Z,7.95
2022-08-19T01:30:21.111Z,7.93
2022-08-19T01:32:49.127Z,7.07
2022-08-19T01:35:19.061Z,8.70
2022-08-19T01:37:51.026Z,6.43
2022-08-19T01:40:23.503Z,8.13
2022-08-19T01:42:53.118Z,8.30
2022-08-19T01:45:23.150Z,7.18
2022-08-19T01:47:55.533Z,6.38
2022-08-19T01:50:34.573Z,6.78
2022-08-19T01:53:06.917Z,7.85
2022-08-19T01:55:41.040Z,7.63
2022-08-19T01:58:14.321Z,6.53
2022-08-19T02:00:43.380Z,8.25
2022-08-19T02:03:12.360Z,7.30
2022-08-19T02:05:45.046Z,7.30
2022-08-19T02:08:14.846Z,7.30
2022-08-19T02:10:45.722Z,6.22
2022-08-19T02:13:15.376Z,7.35
2022-08-19T02:15:43.716Z,7.00
2022-08-19T02:18:11.646Z,5.95
2022-08-19T02:20:41.393Z,7.05
2022-08-19T02:23:13.963Z,6.00
2022-08-19T02:25:47.540Z,7.70
2022-08-19T02:28:18.569Z,6.68
2022-08-19T02:30:48.814Z,6.00
2022-08-19T02:33:17.143Z,6.80
2022-08-19T02:35:45.521Z,5.80
2022-08-19T02:38:28.879Z,7.03
2022-08-19T02:41:00.519Z,6.28
2022-08-19T02:43:32.262Z,6.40
2022-08-19T02:46:02.656Z,5.82
2022-08-19T02:48:31.025Z,6.03
2022-08-19T02:51:00.358Z,7.05
2022-08-19T02:53:30.226Z,6.60
2022-08-19T02:55:59.482Z,4.95
2022-08-19T02:58:28.503Z,6.32
2022-08-19T03:00:58.256Z,6.10
2022-08-19T03:03:26.417Z,5.82
2022-08-19T03:06:06.761Z,5.90
2022-08-19T03:08:34.704Z,5.88
2022-08-19T03:11:04.372Z,5.82
2022-08-19T03:13:32.981Z,6.13
2022-08-19T03:16:00.990Z,5.35
2022-08-19T03:18:28.958Z,5.53
2022-08-19T03:20:58.006Z,4.95
2022-08-19T03:23:26.321Z,5.95
2022-08-19T03:26:03.253Z,5.22
2022-08-19T03:28:51.589Z,4.95
2022-08-19T03:31:43.730Z,4.47
2022-08-19T03:34:21.676Z,5.95
2022-08-19T03:36:52.219Z,5.30
2022-08-19T03:39:20.742Z,5.25
2022-08-19T03:42:30.100Z,5.45
2022-08-19T03:44:40.271Z,4.70
2022-08-19T03:47:08.854Z,5.88
2022-08-19T03:49:37.527Z,5.50
2022-08-19T03:52:08.362Z,5.60
2022-08-19T03:54:37.218Z,5.13
2022-08-19T03:57:06.380Z,5.22
2022-08-19T03:59:37.802Z,5.47
2022-08-19T04:02:10.727Z,5.10
2022-08-19T04:04:39.750Z,5.18
2022-08-19T04:07:08.111Z,4.97
2022-08-19T04:09:37.135Z,4.68
2022-08-19T04:12:07.336Z,5.53
2022-08-19T04:14:36.159Z,4.95
2022-08-19T04:17:06.657Z,5.55
2022-08-19T04:19:37.369Z,5.60
2022-08-19T04:22:05.974Z,5.85
2022-08-19T04:24:34.550Z,5.00
2022-08-19T04:27:03.639Z,5.07
2022-08-19T04:29:32.184Z,4.30
2022-08-19T04:32:08.599Z,4.55
2022-08-19T04:35:02.054Z,4.75
2022-08-19T04:37:31.871Z,3.88
2022-08-19T04:40:23.116Z,4.10
2022-08-19T04:42:51.044Z,4.15
2022-08-19T04:45:18.880Z,4.20
2022-08-19T04:47:58.490Z,3.78
2022-08-19T04:50:44.209Z,3.67
2022-08-19T04:53:12.598Z,4.57
2022-08-19T04:55:42.684Z,4.25
2022-08-19T04:58:10.919Z,3.70
2022-08-19T05:00:40.484Z,4.05
2022-08-19T05:03:10.219Z,4.20
2022-08-19T05:05:44.438Z,3.85
2022-08-19T05:08:15.215Z,4.13
2022-08-19T05:10:43.380Z,4.43
2022-08-19T05:13:11.873Z,3.88
2022-08-19T05:15:40.651Z,3.72
2022-08-19T05:18:26.027Z,3.35
2022-08-19T05:21:12.713Z,3.17
2022-08-19T05:23:41.423Z,4.50
2022-08-19T05:26:13.289Z,3.35
2022-08-19T05:28:41.174Z,2.83
2022-08-19T05:31:09.017Z,3.05
2022-08-19T05:33:40.618Z,3.15
2022-08-19T05:36:10.129Z,2.63
2022-08-19T05:38:38.185Z,2.40
2022-08-19T05:41:09.363Z,2.88
2022-08-19T05:43:38.035Z,2.50
2022-08-19T05:46:12.295Z,2.70
2022-08-19T05:48:40.328Z,2.90
2022-08-19T05:51:10.181Z,3.00
2022-08-19T05:53:38.346Z,2.92
2022-08-19T05:56:07.838Z,3.10
2022-08-19T05:58:35.886Z,3.15
2022-08-19T06:01:06.355Z,3.72
2022-08-19T06:03:35.584Z,3.20
2022-08-19T06:06:04.414Z,3.00
2022-08-19T06:08:34.952Z,3.40
2022-08-19T06:11:21.856Z,3.72
2022-08-19T06:13:59.683Z,3.30
2022-08-19T06:16:28.767Z,3.30
2022-08-19T06:19:00.270Z,3.42
2022-08-19T06:21:29.662Z,4.50
2022-08-19T06:23:59.606Z,4.70
2022-08-19T06:26:28.273Z,4.32
2022-08-19T06:28:58.070Z,4.10
2022-08-19T06:31:32.218Z,4.03
2022-08-19T06:34:00.110Z,3.72
2022-08-19T06:36:32.206Z,3.65
2022-08-19T06:39:02.403Z,3.22
2022-08-19T06:41:31.116Z,3.55
2022-08-19T06:43:59.632Z,2.58
2022-08-19T06:46:28.318Z,3.50
2022-08-19T06:48:56.808Z,2.97
2022-08-19T06:51:25.999Z,2.70
2022-08-19T06:54:01.262Z,3.00
2022-08-19T06:56:34.580Z,3.53
2022-08-19T06:59:04.192Z,3.28
2022-08-19T07:01:32.174Z,2.85
2022-08-19T07:04:01.393Z,2.92
2022-08-19T07:06:43.926Z,2.97
2022-08-19T07:09:18.490Z,2.75
2022-08-19T07:11:47.894Z,2.42
2022-08-19T07:14:19.489Z,3.28
2022-08-19T07:16:48.807Z,2.58
2022-08-19T07:19:19.008Z,2.90
2022-08-19T07:21:50.456Z,2.45
2022-08-19T07:24:21.293Z,2.47
2022-08-19T07:26:51.775Z,2.17
2022-08-19T07:29:23.795Z,2.38
2022-08-19T07:31:56.874Z,2.40
2022-08-19T07:34:25.629Z,2.73
2022-08-19T07:36:54.491Z,2.40
2022-08-19T07:39:30.436Z,2.25
2022-08-19T07:42:00.230Z,2.35
2022-08-19T07:44:28.543Z,2.00
2022-08-19T07:47:01.695Z,2.20
2022-08-19T07:49:29.904Z,2.15
2022-08-19T07:52:00.182Z,2.40
2022-08-19T07:54:31.885Z,2.17
2022-08-19T07:56:59.831Z,2.63
2022-08-19T07:59:29.342Z,2.25
2022-08-19T08:02:00.486Z,2.28
2022-08-19T08:04:46.903Z,2.45
2022-08-19T08:07:32.161Z,2.55
2022-08-19T08:10:02.958Z,2.45
2022-08-19T08:12:35.559Z,2.45
2022-08-19T08:15:12.461Z,2.60
2022-08-19T08:17:49.109Z,2.55
2022-08-19T08:20:17.952Z,2.22
2022-08-19T08:23:04.419Z,2.75
2022-08-19T08:25:34.432Z,2.78
2022-08-19T08:28:04.023Z,2.20
2022-08-19T08:30:37.021Z,2.60
2022-08-19T08:33:06.251Z,2.33
2022-08-19T08:35:34.451Z,2.60
2022-08-19T08:38:04.617Z,2.40
2022-08-19T08:40:41.574Z,2.97
2022-08-19T08:43:15.771Z,2.75
2022-08-19T08:45:53.469Z,2.00
2022-08-19T08:48:26.729Z,2.40
2022-08-19T08:50:57.615Z,2.50
2022-08-19T08:53:31.137Z,2.40
2022-08-19T08:56:07.740Z,2.38
2022-08-19T08:58:44.908Z,2.83
2022-08-19T09:01:13.793Z,2.63
2022-08-19T09:03:46.329Z,2.22
2022-08-19T09:06:20.713Z,2.42
2022-08-19T09:09:00.591Z,2.38
2022-08-19T09:11:44.430Z,2.30
2022-08-19T09:14:47.330Z,2.05
2022-08-19T09:17:10.964Z,2.38
2022-08-19T09:19:51.264Z,2.40
2022-08-19T09:22:25.791Z,2.22
2022-08-19T09:24:55.982Z,2.70
2022-08-19T09:27:42.346Z,2.83
2022-08-19T09:30:18.108Z,2.28
2022-08-19T09:32:46.468Z,1.63
2022-08-19T09:35:16.019Z,2.40
2022-08-19T09:37:46.721Z,2.63
2022-08-19T09:40:15.585Z,2.63
2022-08-19T09:42:49.599Z,2.33
2022-08-19T09:45:23.059Z,2.10
2022-08-19T09:47:54.145Z,2.30
2022-08-19T09:50:24.117Z,1.83
2022-08-19T09:52:55.161Z,2.05
2022-08-19T09:55:31.774Z,2.00
2022-08-19T09:58:05.139Z,2.00
2022-08-19T10:00:32.987Z,2.33
2022-08-19T10:03:01.294Z,2.15
2022-08-19T10:05:48.671Z,2.20
2022-08-19T10:08:18.354Z,2.63
2022-08-19T10:10:49.479Z,2.00
2022-08-19T10:13:22.848Z,2.15
2022-08-19T10:15:52.369Z,2.15
2022-08-19T10:18:22.839Z,1.90
2022-08-19T10:20:53.260Z,2.08
2022-08-19T10:23:21.600Z,2.10
2022-08-19T10:25:49.901Z,2.22
2022-08-19T10:28:19.737Z,2.53
2022-08-19T10:30:48.486Z,1.90
2022-08-19T10:33:38.196Z,1.67
2022-08-19T10:36:06.204Z,2.38
2022-08-19T10:38:34.775Z,1.85
2022-08-19T10:41:09.514Z,2.28
2022-08-19T10:43:40.572Z,1.92
2022-08-19T10:46:14.027Z,2.38
2022-08-19T10:48:45.360Z,2.00
2022-08-19T10:51:31.553Z,2.08
2022-08-19T10:54:00.403Z,1.88
2022-08-19T10:56:47.153Z,2.13
2022-08-19T10:59:18.059Z,2.10
2022-08-19T11:01:47.612Z,1.65
2022-08-19T11:04:19.932Z,2.30
2022-08-19T11:06:48.988Z,2.25
2022-08-19T11:09:17.955Z,1.70
2022-08-19T11:11:46.474Z,2.20
2022-08-19T11:14:19.160Z,1.80
2022-08-19T11:16:47.354Z,1.83
2022-08-19T11:19:18.023Z,1.92
2022-08-19T11:21:48.190Z,1.92
2022-08-19T11:24:19.264Z,2.13
2022-08-19T11:26:47.172Z,1.70
2022-08-19T11:29:15.327Z,1.63
2022-08-19T11:31:46.725Z,1.88
2022-08-19T11:34:17.237Z,1.98
2022-08-19T11:36:49.224Z,1.70
2022-08-19T11:39:21.060Z,1.80
2022-08-19T11:41:49.130Z,1.63
2022-08-19T11:44:17.244Z,1.70
2022-08-19T11:46:48.260Z,1.60
2022-08-19T11:49:17.667Z,1.80
2022-08-19T11:51:45.546Z,1.40
2022-08-19T11:54:15.171Z,1.52
2022-08-19T11:56:44.527Z,1.70
2022-08-19T11:59:14.747Z,1.33
2022-08-19T12:01:44.417Z,2.53
2022-08-19T12:04:13.751Z,1.80
2022-08-19T12:06:42.835Z,1.60
2022-08-19T12:09:15.231Z,1.52
2022-08-19T12:11:43.096Z,1.60
2022-08-19T12:14:15.050Z,1.65
2022-08-19T12:16:50.374Z,1.55
2022-08-19T12:19:24.812Z,1.85
2022-08-19T12:21:56.328Z,1.83
2022-08-19T12:24:25.409Z,1.30
2022-08-19T12:26:54.377Z,1.77
2022-08-19T12:29:29.560Z,1.50
2022-08-19T12:32:01.492Z,1.73
2022-08-19T12:36:59.983Z,1.35
2022-08-19T12:39:27.991Z,1.70
2022-08-19T12:41:55.989Z,1.67
2022-08-19T12:44:29.495Z,1.83
2022-08-19T12:47:00.749Z,1.63
2022-08-19T12:49:54.022Z,1.90
2022-08-19T12:52:23.207Z,2.05
2022-08-19T12:54:54.383Z,2.03
2022-08-19T12:57:24.439Z,2.50
2022-08-19T13:00:04.819Z,1.45
2022-08-19T13:02:38.262Z,1.80
2022-08-19T13:05:12.038Z,1.70
2022-08-19T13:07:41.462Z,1.70
2022-08-19T13:10:12.027Z,1.65
2022-08-19T13:12:41.885Z,1.83
2022-08-19T13:15:15.219Z,1.80
2022-08-19T13:17:46.247Z,1.73
2022-08-19T13:20:15.537Z,1.75
2022-08-19T13:22:45.402Z,1.85
2022-08-19T13:25:14.443Z,1.75
2022-08-19T13:27:42.732Z,1.90
2022-08-19T13:30:43.088Z,1.70
2022-08-19T13:33:15.384Z,1.70
2022-08-19T13:35:49.324Z,1.48
2022-08-19T13:38:19.611Z,1.48
2022-08-19T13:40:47.523Z,1.45
2022-08-19T13:43:22.764Z,1.70
2022-08-19T13:45:57.296Z,1.30
2022-08-19T13:48:27.834Z,1.45
2022-08-19T13:50:57.395Z,1.73
2022-08-19T13:53:25.585Z,1.50
2022-08-19T13:55:54.581Z,1.42
2022-08-19T13:58:22.851Z,1.42
2022-08-19T14:00:50.797Z,1.88
2022-08-19T14:03:18.668Z,1.85
2022-08-19T14:05:47.604Z,1.50
2022-08-19T14:08:17.238Z,1.30
2022-08-19T14:10:46.258Z,1.40
2022-08-19T14:13:18.232Z,1.52
2022-08-19T14:15:47.135Z,1.70
2022-08-19T14:18:15.258Z,1.80
2022-08-19T14:20:43.811Z,1.77
2022-08-19T14:23:13.150Z,1.77
2022-08-19T14:25:42.686Z,2.00
2022-08-19T14:28:10.583Z,1.60
2022-08-19T14:30:39.844Z,2.40
2022-08-19T14:33:09.362Z,1.40
2022-08-19T14:35:38.706Z,2.05
2022-08-19T14:38:08.178Z,1.80
2022-08-19T14:40:36.077Z,2.10
2022-08-19T14:43:06.710Z,1.77
2022-08-19T14:45:38.247Z,2.00
2022-08-19T14:50:34.280Z,1.48
2022-08-19T14:53:12.290Z,1.98
2022-08-19T14:55:44.668Z,1.90
2022-08-19T14:58:28.527Z,2.03
2022-08-19T15:00:58.738Z,1.70
2022-08-19T15:03:26.939Z,1.70
2022-08-19T15:05:55.021Z,2.05
2022-08-19T15:08:23.433Z,1.73
2022-08-19T15:10:51.283Z,1.85
2022-08-19T15:13:22.230Z,1.50
2022-08-19T15:15:50.509Z,2.10
2022-08-19T15:18:18.431Z,1.90
2022-08-19T15:20:47.822Z,2.30
2022-08-19T15:23:19.792Z,1.60
2022-08-19T15:25:47.844Z,1.92
2022-08-19T15:28:16.306Z,1.63
2022-08-19T15:30:45.692Z,1.85
2022-08-19T15:33:15.186Z,1.80
2022-08-19T15:38:13.949Z,1.50
2022-08-19T15:40:43.153Z,1.90
2022-08-19T15:43:11.343Z,1.70
2022-08-19T15:45:40.232Z,1.80
2022-08-19T15:48:09.742Z,1.70
2022-08-19T15:50:38.703Z,1.63
2022-08-19T15:53:09.568Z,1.73
2022-08-19T15:55:42.777Z,1.70
2022-08-19T15:58:31.024Z,1.60
2022-08-19T16:01:18.823Z,1.70
2022-08-19T16:04:14.323Z,2.00
2022-08-19T16:06:45.763Z,2.25
2022-08-19T16:09:13.931Z,1.77
2022-08-19T16:11:56.530Z,1.77
2022-08-19T16:14:25.408Z,2.00
2022-08-19T16:16:55.754Z,1.65
2022-08-19T16:19:25.817Z,1.70
2022-08-19T16:21:56.641Z,1.70
2022-08-19T16:24:28.529Z,1.63
2022-08-19T16:26:57.861Z,2.03
2022-08-19T16:29:33.554Z,1.90
2022-08-19T16:32:02.984Z,1.83
2022-08-19T16:34:33.575Z,1.60
2022-08-19T16:37:01.893Z,1.60
2022-08-19T16:39:30.065Z,1.60
2022-08-19T16:41:57.972Z,1.90
2022-08-19T16:44:29.861Z,1.60
2022-08-19T16:46:59.519Z,1.40
2022-08-19T16:49:54.572Z,1.70
2022-08-19T16:52:18.434Z,1.65
2022-08-19T16:54:49.819Z,1.63
2022-08-19T16:57:19.211Z,1.70
2022-08-19T16:59:49.550Z,1.77
2022-08-19T17:02:18.424Z,2.30
2022-08-19T17:04:55.723Z,1.70
2022-08-19T17:07:28.531Z,1.50
2022-08-19T17:09:56.975Z,1.77
2022-08-19T17:12:30.385Z,1.63
2022-08-19T17:15:00.907Z,1.75
2022-08-19T17:17:32.155Z,1.60
2022-08-19T17:20:03.960Z,2.00
2022-08-19T17:22:40.490Z,1.83
2022-08-19T17:25:09.027Z,1.70
2022-08-19T17:27:37.209Z,1.77
2022-08-19T17:30:06.809Z,1.75
2022-08-19T17:32:34.854Z,1.90
2022-08-19T17:35:04.511Z,2.10
2022-08-19T17:37:34.180Z,1.58
2022-08-19T17:40:02.954Z,1.80
2022-08-19T17:42:32.997Z,1.58
2022-08-19T17:45:01.062Z,1.63
2022-08-19T17:47:29.777Z,2.17
2022-08-19T17:49:57.761Z,2.70
2022-08-19T17:52:26.077Z,2.22
2022-08-19T17:54:55.329Z,2.00
2022-08-19T17:57:23.457Z,1.58
2022-08-19T17:59:51.425Z,2.25
2022-08-19T18:02:22.352Z,1.70
2022-08-19T18:04:50.397Z,1.70
2022-08-19T18:07:21.435Z,1.90
2022-08-19T18:09:53.859Z,1.70
2022-08-19T18:12:27.582Z,3.22
2022-08-19T18:14:55.519Z,2.47
2022-08-19T18:17:24.440Z,2.58
2022-08-19T18:19:52.680Z,2.00
2022-08-19T18:22:27.024Z,2.15
2022-08-19T18:24:55.640Z,2.22
2022-08-19T18:27:23.573Z,2.20
2022-08-19T18:29:54.590Z,2.50
2022-08-19T18:32:23.688Z,2.13
2022-08-19T18:34:52.341Z,2.08
2022-08-19T18:37:25.232Z,2.05
2022-08-19T18:40:10.794Z,2.08
2022-08-19T18:43:01.984Z,2.17
2022-08-19T18:45:49.107Z,2.22
2022-08-19T18:48:34.900Z,2.50
2022-08-19T18:51:03.728Z,2.60
2022-08-19T18:53:33.788Z,2.33
2022-08-19T18:56:02.235Z,2.25
2022-08-19T18:58:33.159Z,2.20
2022-08-19T19:01:10.875Z,2.08
2022-08-19T19:03:40.662Z,1.95
2022-08-19T19:06:08.709Z,2.28
2022-08-19T19:08:37.021Z,2.17
2022-08-19T19:11:06.182Z,2.10
2022-08-19T19:13:34.612Z,2.00
2022-08-19T19:16:04.605Z,2.35
2022-08-19T19:18:33.323Z,2.25
2022-08-19T19:21:01.387Z,2.40
2022-08-19T19:23:29.242Z,2.30
2022-08-19T19:25:58.528Z,1.90
2022-08-19T19:28:28.455Z,2.00
2022-08-19T19:30:58.686Z,2.08
2022-08-19T19:33:28.592Z,2.22
2022-08-19T19:35:56.477Z,2.20
2022-08-19T19:38:24.441Z,2.30
2022-08-19T19:40:55.137Z,2.03
2022-08-19T19:43:23.137Z,2.10
2022-08-19T19:45:52.073Z,2.40
2022-08-19T19:48:19.961Z,2.55
2022-08-19T19:50:54.038Z,2.60
2022-08-19T19:53:24.881Z,2.45
2022-08-19T19:56:00.450Z,2.60
2022-08-19T19:58:29.323Z,2.40
2022-08-19T20:00:59.200Z,2.70
2022-08-19T20:03:27.815Z,2.10
2022-08-19T20:06:00.212Z,2.45
2022-08-19T20:08:46.936Z,2.25
2022-08-19T20:11:31.219Z,2.67
2022-08-19T20:14:01.001Z,2.85
2022-08-19T20:16:30.922Z,2.83
2022-08-19T20:19:00.701Z,2.70
2022-08-19T20:21:32.462Z,2.90
2022-08-19T20:24:09.365Z,2.70
2022-08-19T20:26:38.184Z,2.40
2022-08-19T20:29:09.966Z,2.70
2022-08-19T20:31:57.560Z,2.80
2022-08-19T20:34:27.743Z,2.80
2022-08-19T20:36:57.036Z,2.88
2022-08-19T20:39:24.945Z,2.72
2022-08-19T20:41:54.753Z,2.58
2022-08-19T20:44:25.245Z,3.35
2022-08-19T20:46:55.294Z,2.85
2022-08-19T20:49:26.814Z,3.50
2022-08-19T20:51:56.662Z,3.37
2022-08-19T20:54:25.423Z,3.35
2022-08-19T20:56:53.583Z,2.88
2022-08-19T20:59:21.761Z,3.28
2022-08-19T21:01:51.687Z,3.10
2022-08-19T21:04:20.199Z,2.90
2022-08-19T21:06:48.113Z,3.40
2022-08-19T21:09:17.437Z,3.05
2022-08-19T21:11:45.524Z,3.60
2022-08-19T21:14:13.992Z,3.00
2022-08-19T21:16:41.886Z,3.28
2022-08-19T21:19:09.862Z,3.08
2022-08-19T21:21:39.905Z,3.40
2022-08-19T21:24:07.976Z,3.53
2022-08-19T21:26:37.177Z,3.22
2022-08-19T21:29:05.057Z,3.50
2022-08-19T21:31:32.974Z,3.65
2022-08-19T21:34:01.340Z,3.28
2022-08-19T21:36:29.183Z,3.30
2022-08-19T21:38:57.089Z,3.53
2022-08-19T21:41:25.102Z,4.70
2022-08-19T21:43:54.495Z,3.40
2022-08-19T21:46:22.567Z,3.00
2022-08-19T21:48:50.442Z,3.47
2022-08-19T21:51:18.304Z,3.10
2022-08-19T21:53:49.041Z,3.53
2022-08-19T21:56:20.940Z,3.17
2022-08-19T21:58:48.815Z,3.35
2022-08-19T22:01:20.060Z,3.42
2022-08-19T22:06:35.722Z,2.88
2022-08-19T22:09:03.545Z,3.40
2022-08-19T22:11:32.001Z,2.90
2022-08-19T22:13:59.891Z,2.92
2022-08-19T22:16:28.663Z,3.20
2022-08-19T22:18:57.562Z,3.03
2022-08-19T22:21:34.552Z,2.80
2022-08-19T22:24:10.384Z,2.85
2022-08-19T22:26:38.270Z,2.92
2022-08-19T22:29:07.500Z,3.13
2022-08-19T22:31:36.437Z,3.20
2022-08-19T22:34:05.450Z,2.97
2022-08-19T22:36:33.924Z,3.42
2022-08-19T22:39:02.084Z,2.83
2022-08-19T22:41:36.280Z,3.03
2022-08-19T22:44:04.914Z,3.17
2022-08-19T22:46:36.055Z,2.60
2022-08-19T22:49:04.138Z,3.30
2022-08-19T22:51:45.868Z,3.42
2022-08-19T22:54:13.713Z,3.40
2022-08-19T22:56:43.349Z,2.83
2022-08-19T22:59:11.489Z,3.25
2022-08-19T23:01:41.744Z,3.08
2022-08-19T23:04:09.707Z,3.20
2022-08-19T23:06:41.491Z,3.13
2022-08-19T23:11:41.926Z,2.92
2022-08-19T23:14:12.393Z,3.47
2022-08-19T23:16:41.368Z,3.00
2022-08-19T23:19:10.018Z,2.60
2022-08-19T23:21:37.978Z,2.90
2022-08-19T23:24:06.563Z,2.83
2022-08-19T23:26:35.999Z,3.10
2022-08-19T23:29:23.015Z,2.85
2022-08-19T23:31:52.451Z,2.97
2022-08-19T23:34:20.498Z,3.00
2022-08-19T23:36:48.359Z,2.90
2022-08-19T23:39:16.308Z,2.80
2022-08-19T23:41:44.177Z,3.33
2022-08-19T23:44:14.573Z,3.20
2022-08-19T23:46:54.952Z,3.17
2022-08-19T23:49:26.292Z,3.10
2022-08-19T23:51:56.396Z,3.15
2022-08-19T23:54:34.304Z,2.95
2022-08-19T23:57:13.901Z,2.80
2022-08-19T23:59:45.437Z,3.00
